createdAt,value
2019-04-20T00:00:49.146Z,100612.38
2019-04-20T00:03:12.172Z,100609.00
2019-04-20T00:05:39.192Z,100613.09
2019-04-20T00:08:08.912Z,100613.22
2019-04-20T00:10:42.510Z,100604.10
2019-04-20T00:13:17.628Z,100616.97
2019-04-20T00:15:32.122Z,100603.59
2019-04-20T00:18:03.083Z,100608.15
2019-04-20T00:20:32.028Z,100606.92
2019-04-20T00:22:57.887Z,100608.81
2019-04-20T00:25:38.599Z,100608.91
2019-04-20T00:28:11.973Z,100601.62
2019-04-20T00:30:45.096Z,100609.28
2019-04-20T00:32:58.572Z,100602.83
2019-04-20T00:35:18.851Z,100603.45
2019-04-20T00:37:46.456Z,100599.13
2019-04-20T00:40:13.412Z,100597.08
2019-04-20T00:42:45.765Z,100603.77
2019-04-20T00:45:16.217Z,100600.39
2019-04-20T00:47:47.709Z,100601.34
2019-04-20T00:50:25.868Z,100600.56
2019-04-20T00:52:51.432Z,100594.56
2019-04-20T00:55:02.369Z,100598.20
2019-04-20T00:57:41.395Z,100601.74
2019-04-20T01:00:19.190Z,100602.23
2019-04-20T01:02:40.664Z,100604.48
2019-04-20T01:05:15.197Z,100599.31
2019-04-20T01:07:32.867Z,100596.34
2019-04-20T01:09:52.233Z,100600.41
2019-04-20T01:12:24.234Z,100594.78
2019-04-20T01:14:55.150Z,100591.77
2019-04-20T01:17:15.444Z,100590.13
2019-04-20T01:19:42.061Z,100600.78
2019-04-20T01:22:14.744Z,100598.68
2019-04-20T01:24:40.499Z,100598.75
2019-04-20T01:27:10.928Z,100590.61
2019-04-20T01:29:42.628Z,100594.32
2019-04-20T01:32:10.462Z,100594.88
2019-04-20T01:34:41.723Z,100591.05
2019-04-20T01:37:14.679Z,100591.16
2019-04-20T01:39:35.334Z,100595.12
2019-04-20T01:41:56.133Z,100594.79
2019-04-20T01:44:26.161Z,100592.23
2019-04-20T01:46:55.230Z,100599.38
2019-04-20T01:49:23.840Z,100603.84
2019-04-20T01:51:57.686Z,100596.52
2019-04-20T01:54:34.041Z,100600.08
2019-04-20T01:56:57.027Z,100592.27
2019-04-20T01:59:22.992Z,100598.48
2019-04-20T02:01:42.815Z,100593.72
2019-04-20T02:04:15.792Z,100592.03
2019-04-20T02:06:43.416Z,100590.75
2019-04-20T02:09:11.986Z,100591.23
2019-04-20T02:11:39.343Z,100599.14
2019-04-20T02:14:06.956Z,100594.41
2019-04-20T02:16:38.284Z,100600.10
2019-04-20T02:19:16.018Z,100595.84
2019-04-20T02:21:48.505Z,100597.67
2019-04-20T02:24:01.268Z,100591.62
2019-04-20T02:26:26.075Z,100597.77
2019-04-20T02:29:20.255Z,100597.39
2019-04-20T02:32:06.648Z,100593.55
2019-04-20T02:34:26.085Z,100592.75
2019-04-20T02:39:30.875Z,100593.27
2019-04-20T02:41:54.285Z,100596.81
2019-04-20T02:44:27.118Z,100599.08
2019-04-20T02:46:51.053Z,100597.03
2019-04-20T02:49:26.118Z,100601.95
2019-04-20T02:56:39.401Z,100601.00
2019-04-20T02:59:31.545Z,100605.83
2019-04-20T03:01:25.295Z,100599.75
2019-04-20T03:03:38.609Z,100597.22
2019-04-20T03:06:13.393Z,100595.53
2019-04-20T03:08:53.242Z,100592.94
2019-04-20T03:11:22.455Z,100594.30
2019-04-20T03:13:44.139Z,100597.42
2019-04-20T03:16:14.421Z,100599.72
2019-04-20T03:18:39.871Z,100598.49
2019-04-20T03:21:12.830Z,100597.23
2019-04-20T03:23:42.822Z,100588.56
2019-04-20T03:26:06.453Z,100593.48
2019-04-20T03:28:32.865Z,100595.73
2019-04-20T03:36:16.244Z,100599.09
2019-04-20T03:38:30.203Z,100587.81
2019-04-20T03:40:48.335Z,100595.22
2019-04-20T03:43:03.861Z,100594.36
2019-04-20T03:45:37.435Z,100599.17
2019-04-20T03:48:11.572Z,100601.80
2019-04-20T03:50:46.740Z,100602.23
2019-04-20T03:53:19.916Z,100611.82
2019-04-20T03:55:39.686Z,100605.70
2019-04-20T03:58:14.299Z,100601.30
2019-04-20T04:00:36.500Z,100611.30
2019-04-20T04:03:21.695Z,100609.97
2019-04-20T04:05:40.098Z,100611.61
2019-04-20T04:08:02.295Z,100608.96
2019-04-20T04:10:29.230Z,100609.36
2019-04-20T04:12:46.769Z,100610.64
2019-04-20T04:15:12.707Z,100621.53
2019-04-20T04:17:43.217Z,100610.59
2019-04-20T04:20:13.098Z,100616.22
2019-04-20T04:22:50.030Z,100615.33
2019-04-20T04:25:18.467Z,100621.34
2019-04-20T04:27:52.970Z,100623.02
2019-04-20T04:30:14.198Z,100623.38
2019-04-20T04:33:10.912Z,100617.64
2019-04-20T04:35:09.203Z,100626.70
2019-04-20T04:37:45.917Z,100623.55
2019-04-20T04:40:26.449Z,100621.70
2019-04-20T04:42:48.187Z,100621.14
2019-04-20T04:45:00.590Z,100624.09
2019-04-20T04:47:20.199Z,100628.35
2019-04-20T04:49:55.225Z,100623.43
2019-04-20T04:52:19.165Z,100623.79
2019-04-20T04:54:52.741Z,100623.28
2019-04-20T04:57:11.718Z,100619.73
2019-04-20T04:59:38.510Z,100621.38
2019-04-20T05:02:05.392Z,100625.24
2019-04-20T05:04:59.986Z,100623.36
2019-04-20T05:07:11.495Z,100620.13
2019-04-20T05:09:29.618Z,100617.80
2019-04-20T05:12:03.969Z,100624.23
2019-04-20T05:14:39.787Z,100625.34
2019-04-20T05:17:07.681Z,100619.06
2019-04-20T05:19:41.643Z,100621.00
2019-04-20T05:22:16.023Z,100626.50
2019-04-20T05:24:37.287Z,100624.50
2019-04-20T05:27:11.659Z,100627.29
2019-04-20T05:29:19.421Z,100628.39
2019-04-20T05:31:50.328Z,100628.09
2019-04-20T05:34:30.922Z,100620.83
2019-04-20T05:36:57.971Z,100619.70
2019-04-20T05:39:32.671Z,100619.39
2019-04-20T05:41:51.736Z,100620.39
2019-04-20T05:44:19.593Z,100627.48
2019-04-20T05:46:59.975Z,100621.81
2019-04-20T05:49:23.100Z,100627.97
2019-04-20T05:51:48.677Z,100621.80
2019-04-20T05:54:21.005Z,100616.93
2019-04-20T05:56:46.237Z,100619.53
2019-04-20T05:59:15.008Z,100628.26
2019-04-20T06:01:49.932Z,100634.34
2019-04-20T06:04:05.455Z,100629.84
2019-04-20T06:06:45.108Z,100631.95
2019-04-20T06:09:12.037Z,100633.20
2019-04-20T06:11:44.479Z,100634.42
2019-04-20T06:13:56.917Z,100622.02
2019-04-20T06:16:42.644Z,100624.50
2019-04-20T06:19:18.780Z,100626.17
2019-04-20T06:21:37.991Z,100619.05
2019-04-20T06:24:05.046Z,100627.30
2019-04-20T06:26:44.128Z,100624.58
2019-04-20T06:28:48.920Z,100619.62
2019-04-20T06:31:26.721Z,100627.39
2019-04-20T06:34:08.926Z,100625.08
2019-04-20T06:36:29.195Z,100627.55
2019-04-20T06:38:55.773Z,100626.48
2019-04-20T06:41:26.513Z,100623.20
2019-04-20T06:43:55.999Z,100625.12
2019-04-20T06:46:20.235Z,100613.02
2019-04-20T06:48:49.974Z,100615.77
2019-04-20T06:51:10.798Z,100615.55
2019-04-20T06:53:45.046Z,100612.66
2019-04-20T06:56:13.926Z,100605.87
2019-04-20T06:58:43.714Z,100610.52
2019-04-20T07:01:05.680Z,100608.53
2019-04-20T07:03:42.139Z,100609.15
2019-04-20T07:06:06.403Z,100607.15
2019-04-20T07:11:05.896Z,100600.11
2019-04-20T07:13:19.294Z,100596.77
2019-04-20T07:15:46.513Z,100591.92
2019-04-20T07:18:26.184Z,100601.66
2019-04-20T07:20:55.394Z,100596.87
2019-04-20T07:25:48.840Z,100590.91
2019-04-20T07:28:24.138Z,100587.80
2019-04-20T07:30:46.545Z,100588.48
2019-04-20T07:33:19.972Z,100592.77
2019-04-20T07:35:40.450Z,100594.55
2019-04-20T07:38:23.383Z,100589.99
2019-04-20T07:40:35.976Z,100592.86
2019-04-20T07:43:02.791Z,100587.23
2019-04-20T07:48:09.328Z,100581.69
2019-04-20T07:50:26.677Z,100588.16
2019-04-20T07:52:51.691Z,100582.11
2019-04-20T07:57:52.593Z,100584.26
2019-04-20T08:00:26.345Z,100586.09
2019-04-20T08:02:57.255Z,100578.52
2019-04-20T08:05:15.415Z,100573.64
2019-04-20T08:07:46.285Z,100571.28
2019-04-20T08:10:09.991Z,100568.95
2019-04-20T08:13:00.772Z,100568.77
2019-04-20T08:15:39.170Z,100566.65
2019-04-20T08:17:56.898Z,100574.11
2019-04-20T08:20:16.142Z,100569.36
2019-04-20T08:22:47.930Z,100564.08
2019-04-20T08:25:12.579Z,100560.52
2019-04-20T08:27:23.811Z,100560.52
2019-04-20T08:30:03.477Z,100558.86
2019-04-20T08:32:37.754Z,100557.09
2019-04-20T08:35:14.314Z,100557.41
2019-04-20T08:37:32.092Z,100552.05
2019-04-20T08:40:06.823Z,100551.77
2019-04-20T08:42:39.955Z,100543.92
2019-04-20T08:45:08.386Z,100545.65
2019-04-20T08:47:39.547Z,100541.81
2019-04-20T08:50:03.418Z,100540.08
2019-04-20T08:52:47.112Z,100534.34
2019-04-20T08:54:56.965Z,100539.06
2019-04-20T08:57:03.722Z,100526.36
2019-04-20T08:59:33.447Z,100532.65
2019-04-20T09:02:05.137Z,100528.67
2019-04-20T09:04:38.599Z,100525.31
2019-04-20T09:07:06.474Z,100519.48
2019-04-20T09:09:52.727Z,100514.14
2019-04-20T09:14:25.591Z,100503.31
2019-04-20T09:16:59.754Z,100506.34
2019-04-20T09:19:32.045Z,100508.82
2019-04-20T09:21:54.916Z,100505.05
2019-04-20T09:24:36.853Z,100487.64
2019-04-20T09:27:04.607Z,100493.41
2019-04-20T09:29:31.930Z,100493.47
2019-04-20T09:32:00.319Z,100498.31
2019-04-20T09:34:29.237Z,100484.05
2019-04-20T09:36:49.612Z,100484.86
2019-04-20T09:39:15.002Z,100485.71
2019-04-20T09:41:58.126Z,100476.73
2019-04-20T09:44:04.678Z,100475.45
2019-04-20T09:46:37.846Z,100472.44
2019-04-20T09:49:12.206Z,100468.03
2019-04-20T09:51:43.614Z,100465.67
2019-04-20T09:54:12.470Z,100463.13
2019-04-20T09:56:41.948Z,100460.19
2019-04-20T09:59:12.342Z,100456.59
2019-04-20T10:01:31.144Z,100452.55
2019-04-20T10:03:50.313Z,100442.38
2019-04-20T10:06:17.998Z,100436.39
2019-04-20T10:08:50.759Z,100443.14
2019-04-20T10:11:13.926Z,100449.23
2019-04-20T10:13:40.552Z,100445.09
2019-04-20T10:16:08.017Z,100438.54
2019-04-20T10:18:41.426Z,100438.42
2019-04-20T10:21:03.071Z,100438.45
2019-04-20T10:23:30.290Z,100431.52
2019-04-20T10:25:58.454Z,100423.83
2019-04-20T10:28:25.602Z,100421.39
2019-04-20T10:30:52.639Z,100420.02
2019-04-20T10:33:19.591Z,100421.72
2019-04-20T10:35:47.613Z,100420.77
2019-04-20T10:38:15.641Z,100414.02
2019-04-20T10:40:52.976Z,100419.30
2019-04-20T10:43:12.020Z,100413.13
2019-04-20T10:45:39.200Z,100412.61
2019-04-20T10:48:05.893Z,100415.42
2019-04-20T10:50:32.508Z,100405.11
2019-04-20T10:52:59.628Z,100404.35
2019-04-20T10:55:27.236Z,100407.30
2019-04-20T10:57:53.937Z,100404.94
2019-04-20T11:00:21.631Z,100399.66
2019-04-20T11:02:50.489Z,100390.52
2019-04-20T11:05:16.980Z,100393.11
2019-04-20T11:07:44.322Z,100391.38
2019-04-20T11:10:15.750Z,100384.75
2019-04-20T11:12:40.120Z,100383.73
2019-04-20T11:15:08.275Z,100385.12
2019-04-20T11:17:35.395Z,100382.00
2019-04-20T11:20:03.275Z,100381.41
2019-04-20T11:22:30.527Z,100378.06
2019-04-20T11:24:58.472Z,100383.24
2019-04-20T11:27:25.827Z,100386.15
2019-04-20T11:29:52.454Z,100368.66
2019-04-20T11:32:20.203Z,100370.47
2019-04-20T11:34:47.167Z,100355.98
2019-04-20T11:37:15.145Z,100356.23
2019-04-20T11:39:43.072Z,100356.11
2019-04-20T11:42:10.052Z,100357.34
2019-04-20T11:44:38.113Z,100347.52
2019-04-20T11:47:06.314Z,100340.58
2019-04-20T11:49:33.359Z,100333.14
2019-04-20T11:52:01.404Z,100331.61
2019-04-20T11:54:28.345Z,100329.92
2019-04-20T11:56:55.492Z,100325.34
2019-04-20T11:59:23.149Z,100325.69
2019-04-20T12:01:56.539Z,100322.50
2019-04-20T12:04:30.688Z,100313.55
2019-04-20T12:06:46.666Z,100302.53
2019-04-20T12:09:13.303Z,100295.60
2019-04-20T12:11:53.496Z,100296.95
2019-04-20T12:14:08.209Z,100299.63
2019-04-20T12:16:35.259Z,100291.83
2019-04-20T12:19:02.256Z,100288.23
2019-04-20T12:21:29.064Z,100280.95
2019-04-20T12:23:56.176Z,100282.66
2019-04-20T12:26:23.061Z,100277.95
2019-04-20T12:28:49.777Z,100273.59
2019-04-20T12:31:20.426Z,100266.17
2019-04-20T12:33:44.718Z,100266.19
2019-04-20T12:36:12.250Z,100255.20
2019-04-20T12:38:39.181Z,100257.75
2019-04-20T12:41:07.738Z,100250.29
2019-04-20T12:43:34.181Z,100246.41
2019-04-20T12:46:02.088Z,100241.51
2019-04-20T12:48:29.343Z,100233.69
2019-04-20T12:50:57.261Z,100237.37
2019-04-20T12:53:24.508Z,100235.80
2019-04-20T12:55:52.603Z,100228.33
2019-04-20T12:58:20.714Z,100222.21
2019-04-20T13:00:49.835Z,100219.84
2019-04-20T13:03:17.173Z,100216.27
2019-04-20T13:05:43.895Z,100221.31
2019-04-20T13:08:13.740Z,100220.51
2019-04-20T13:10:40.116Z,100218.17
2019-04-20T13:13:08.086Z,100222.30
2019-04-20T13:15:36.315Z,100216.77
2019-04-20T13:18:03.292Z,100213.09
2019-04-20T13:20:30.117Z,100207.16
2019-04-20T13:22:57.165Z,100211.75
2019-04-20T13:25:25.081Z,100207.01
2019-04-20T13:27:52.749Z,100208.88
2019-04-20T13:30:19.725Z,100198.91
2019-04-20T13:32:47.709Z,100195.16
2019-04-20T13:35:14.428Z,100187.04
2019-04-20T13:37:42.320Z,100192.45
2019-04-20T13:40:09.390Z,100191.61
2019-04-20T13:42:36.467Z,100191.09
2019-04-20T13:45:04.303Z,100192.62
2019-04-20T13:47:32.737Z,100190.08
2019-04-20T13:49:59.840Z,100187.00
2019-04-20T13:52:28.560Z,100180.05
2019-04-20T13:54:55.916Z,100169.89
2019-04-20T13:57:23.686Z,100167.98
2019-04-20T13:59:50.506Z,100172.87
2019-04-20T14:02:20.509Z,100165.70
2019-04-20T14:04:48.588Z,100161.77
2019-04-20T14:07:16.782Z,100153.62
2019-04-20T14:09:43.699Z,100149.50
2019-04-20T14:12:16.222Z,100153.55
2019-04-20T14:14:39.261Z,100150.83
2019-04-20T14:17:07.413Z,100143.88
2019-04-20T14:19:34.809Z,100140.66
2019-04-20T14:22:02.120Z,100135.18
2019-04-20T14:24:28.979Z,100142.94
2019-04-20T14:26:56.907Z,100141.50
2019-04-20T14:29:25.081Z,100128.41
2019-04-20T14:31:52.088Z,100134.99
2019-04-20T14:34:18.756Z,100132.05
2019-04-20T14:36:46.675Z,100123.98
2019-04-20T14:39:14.107Z,100128.65
2019-04-20T14:41:40.761Z,100130.76
2019-04-20T14:44:07.931Z,100138.59
2019-04-20T14:46:35.768Z,100132.36
2019-04-20T14:49:02.902Z,100135.70
2019-04-20T14:51:29.851Z,100127.47
2019-04-20T14:53:56.465Z,100125.61
2019-04-20T14:56:23.427Z,100135.91
2019-04-20T14:58:51.364Z,100130.73
2019-04-20T15:01:18.577Z,100121.20
2019-04-20T15:03:45.498Z,100131.18
2019-04-20T15:06:13.606Z,100125.02
2019-04-20T15:08:40.770Z,100121.23
2019-04-20T15:11:07.498Z,100125.72
2019-04-20T15:13:34.930Z,100118.19
2019-04-20T15:16:02.434Z,100117.56
2019-04-20T15:18:29.395Z,100115.95
2019-04-20T15:20:57.358Z,100116.33
2019-04-20T15:23:24.008Z,100118.78
2019-04-20T15:25:50.672Z,100118.80
2019-04-20T15:28:18.555Z,100114.91
2019-04-20T15:30:45.329Z,100108.77
2019-04-20T15:33:12.705Z,100102.14
2019-04-20T15:35:40.070Z,100115.91
2019-04-20T15:38:07.101Z,100110.77
2019-04-20T15:40:34.971Z,100110.28
2019-04-20T15:43:11.823Z,100115.30
2019-04-20T15:45:31.394Z,100105.83
2019-04-20T15:47:59.400Z,100102.08
2019-04-20T15:50:27.584Z,100099.73
2019-04-20T15:52:56.568Z,100097.83
2019-04-20T15:55:27.496Z,100103.81
2019-04-20T15:57:50.887Z,100100.19
2019-04-20T16:00:18.424Z,100095.63
2019-04-20T16:02:45.401Z,100099.90
2019-04-20T16:05:12.407Z,100093.87
2019-04-20T16:07:46.582Z,100090.65
2019-04-20T16:10:07.486Z,100090.70
2019-04-20T16:12:35.148Z,100087.20
2019-04-20T16:15:02.087Z,100086.93
2019-04-20T16:17:33.660Z,100084.22
2019-04-20T16:20:03.892Z,100088.45
2019-04-20T16:22:25.835Z,100084.87
2019-04-20T16:24:53.735Z,100083.94
2019-04-20T16:27:20.453Z,100078.25
2019-04-20T16:29:47.380Z,100077.23
2019-04-20T16:32:14.424Z,100079.08
2019-04-20T16:34:42.495Z,100076.38
2019-04-20T16:37:10.575Z,100075.63
2019-04-20T16:39:38.567Z,100079.11
2019-04-20T16:42:06.448Z,100084.11
2019-04-20T16:44:35.594Z,100078.77
2019-04-20T16:47:02.254Z,100077.19
2019-04-20T16:49:28.891Z,100080.60
2019-04-20T16:51:56.878Z,100083.84
2019-04-20T16:54:23.840Z,100085.20
2019-04-20T16:56:50.784Z,100076.64
2019-04-20T16:59:19.186Z,100076.84
2019-04-20T17:01:46.658Z,100078.39
2019-04-20T17:04:18.596Z,100071.84
2019-04-20T17:06:42.358Z,100074.69
2019-04-20T17:09:10.073Z,100077.05
2019-04-20T17:11:37.592Z,100076.41
2019-04-20T17:14:04.162Z,100072.53
2019-04-20T17:16:31.653Z,100082.44
2019-04-20T17:18:59.637Z,100083.03
2019-04-20T17:21:28.872Z,100083.33
2019-04-20T17:23:55.463Z,100088.39
2019-04-20T17:26:23.111Z,100084.83
2019-04-20T17:28:52.403Z,100081.73
2019-04-20T17:31:19.664Z,100087.16
2019-04-20T17:33:58.432Z,100083.22
2019-04-20T17:36:19.792Z,100084.63
2019-04-20T17:38:48.479Z,100089.06
2019-04-20T17:41:32.400Z,100086.44
2019-04-20T17:44:01.497Z,100096.09
2019-04-20T17:46:23.689Z,100094.94
2019-04-20T17:48:51.367Z,100098.84
2019-04-20T17:51:28.684Z,100105.30
2019-04-20T17:53:41.814Z,100098.97
2019-04-20T17:56:03.529Z,100101.73
2019-04-20T17:58:34.424Z,100099.12
2019-04-20T18:00:59.903Z,100103.09
2019-04-20T18:03:58.951Z,100102.78
2019-04-20T18:06:14.542Z,100106.35
2019-04-20T18:08:41.397Z,100107.38
2019-04-20T18:11:01.853Z,100109.35
2019-04-20T18:13:24.000Z,100110.25
2019-04-20T18:16:04.588Z,100119.02
2019-04-20T18:18:33.661Z,100119.76
2019-04-20T18:20:45.056Z,100128.89
2019-04-20T18:23:12.926Z,100119.41
2019-04-20T18:26:07.842Z,100122.61
2019-04-20T18:28:20.925Z,100127.36
2019-04-20T18:30:44.810Z,100123.23
2019-04-20T18:33:05.403Z,100121.45
2019-04-20T18:35:34.775Z,100127.05
2019-04-20T18:38:04.644Z,100125.72
2019-04-20T18:40:37.231Z,100124.63
2019-04-20T18:43:05.248Z,100129.89
2019-04-20T18:45:41.049Z,100128.64
2019-04-20T18:48:11.471Z,100133.78
2019-04-20T18:50:27.386Z,100131.22
2019-04-20T18:52:51.651Z,100130.86
2019-04-20T18:55:27.473Z,100133.55
2019-04-20T18:57:47.045Z,100129.66
2019-04-20T19:00:20.094Z,100134.30
2019-04-20T19:02:46.905Z,100131.25
2019-04-20T19:05:11.423Z,100131.27
2019-04-20T19:07:43.648Z,100126.88
2019-04-20T19:10:14.535Z,100132.09
2019-04-20T19:12:43.991Z,100127.63
2019-04-20T19:15:28.258Z,100130.28
2019-04-20T19:20:20.587Z,100129.16
2019-04-20T19:22:48.266Z,100130.95
2019-04-20T19:25:18.396Z,100134.45
2019-04-20T19:27:48.893Z,100127.91
2019-04-20T19:30:26.666Z,100131.52
2019-04-20T19:33:01.036Z,100127.49
2019-04-20T19:35:24.344Z,100125.42
2019-04-20T19:37:51.648Z,100125.52
2019-04-20T19:40:15.939Z,100114.09
2019-04-20T19:42:45.509Z,100129.23
2019-04-20T19:45:30.131Z,100124.00
2019-04-20T19:47:48.082Z,100125.78
2019-04-20T19:50:25.166Z,100124.67
2019-04-20T19:52:53.164Z,100121.12
2019-04-20T19:55:14.735Z,100121.08
2019-04-20T19:57:42.862Z,100128.19
2019-04-20T19:59:55.815Z,100123.30
2019-04-20T20:02:19.829Z,100117.55
2019-04-20T20:04:50.802Z,100123.72
2019-04-20T20:07:21.898Z,100121.60
2019-04-20T20:09:49.749Z,100127.98
2019-04-20T20:12:14.741Z,100125.11
2019-04-20T20:14:45.669Z,100125.31
2019-04-20T20:17:27.367Z,100122.95
2019-04-20T20:20:03.988Z,100123.69
2019-04-20T20:22:17.207Z,100130.16
2019-04-20T20:24:33.372Z,100130.44
2019-04-20T20:27:06.129Z,100134.44
2019-04-20T20:29:37.629Z,100134.34
2019-04-20T20:32:13.255Z,100136.66
2019-04-20T20:34:32.406Z,100135.98
2019-04-20T20:37:00.034Z,100136.11
2019-04-20T20:39:27.731Z,100138.66
2019-04-20T20:42:04.737Z,100140.34
2019-04-20T20:44:27.625Z,100134.05
2019-04-20T20:47:10.616Z,100136.16
2019-04-20T20:49:33.189Z,100134.12
2019-04-20T20:52:02.198Z,100132.05
2019-04-20T20:54:28.376Z,100135.77
2019-04-20T20:56:49.972Z,100130.30
2019-04-20T20:59:13.965Z,100146.81
2019-04-20T21:01:46.453Z,100142.09
2019-04-20T21:04:05.086Z,100142.70
2019-04-20T21:06:32.830Z,100134.44
2019-04-20T21:09:01.338Z,100135.41
2019-04-20T21:11:31.425Z,100138.91
2019-04-20T21:13:57.463Z,100139.56
2019-04-20T21:16:30.892Z,100133.23
2019-04-20T21:19:10.626Z,100144.03
2019-04-20T21:21:38.829Z,100142.51
2019-04-20T21:23:58.185Z,100146.59
2019-04-20T21:26:25.841Z,100138.80
2019-04-20T21:28:45.841Z,100143.82
2019-04-20T21:31:16.846Z,100145.36
2019-04-20T21:33:41.014Z,100147.43
2019-04-20T21:36:09.106Z,100153.86
2019-04-20T21:38:40.742Z,100149.72
2019-04-20T21:41:09.342Z,100145.53
2019-04-20T21:43:37.262Z,100145.29
2019-04-20T21:46:04.938Z,100146.03
2019-04-20T21:48:43.945Z,100143.30
2019-04-20T21:51:13.421Z,100139.20
2019-04-20T21:53:31.359Z,100143.17
2019-04-20T21:55:55.189Z,100140.67
2019-04-20T21:58:29.623Z,100138.19
2019-04-20T22:01:02.139Z,100140.61
2019-04-20T22:03:18.647Z,100140.74
2019-04-20T22:05:46.474Z,100131.45
2019-04-20T22:08:16.058Z,100130.09
2019-04-20T22:10:42.901Z,100128.36
2019-04-20T22:13:09.965Z,100122.63
2019-04-20T22:15:46.637Z,100127.52
2019-04-20T22:18:09.419Z,100133.70
2019-04-20T22:20:48.057Z,100127.79
2019-04-20T22:23:13.795Z,100129.78
2019-04-20T22:25:50.543Z,100130.07
2019-04-20T22:28:00.613Z,100125.58
2019-04-20T22:30:28.130Z,100128.97
2019-04-20T22:32:55.271Z,100124.77
2019-04-20T22:35:24.410Z,100120.57
2019-04-20T22:37:52.036Z,100116.80
2019-04-20T22:40:25.090Z,100115.16
2019-04-20T22:42:51.665Z,100113.14
2019-04-20T22:45:17.272Z,100108.02
2019-04-20T22:47:43.998Z,100101.47
2019-04-20T22:50:29.028Z,100109.49
2019-04-20T22:52:50.207Z,100111.48
2019-04-20T22:55:30.052Z,100098.41
2019-04-20T22:57:48.726Z,100094.28
2019-04-20T23:00:12.294Z,100100.28
2019-04-20T23:02:33.255Z,100104.91
2019-04-20T23:05:00.689Z,100104.21
2019-04-20T23:07:28.483Z,100109.11
2019-04-20T23:09:59.426Z,100099.23
2019-04-20T23:12:26.308Z,100102.42
2019-04-20T23:14:52.309Z,100094.37
2019-04-20T23:17:26.942Z,100090.78
2019-04-20T23:19:52.651Z,100085.91
2019-04-20T23:22:17.450Z,100086.69
2019-04-20T23:24:44.866Z,100080.49
2019-04-20T23:27:18.150Z,100080.80
2019-04-20T23:29:41.645Z,100077.21
2019-04-20T23:32:11.915Z,100078.87
2019-04-20T23:34:38.935Z,100074.73
2019-04-20T23:37:08.751Z,100068.08
2019-04-20T23:39:39.740Z,100058.23
2019-04-20T23:42:06.676Z,100063.81
2019-04-20T23:44:31.420Z,100060.64
2019-04-20T23:47:04.531Z,100055.58
2019-04-20T23:49:31.811Z,100057.98
2019-04-20T23:52:16.663Z,100057.98
2019-04-20T23:54:27.413Z,100055.44
2019-04-20T23:56:51.506Z,100057.30
2019-04-20T23:59:19.199Z,100053.87
